sensor_id;sensor_type;location;lat;lon;timestamp;temperature;humidity
4820;DHT22;2424;49.696;6.630;2023-11-21T00:03:18;8.80;99.90
4820;DHT22;2424;49.696;6.630;2023-11-21T00:08:42;8.80;99.90
4820;DHT22;2424;49.696;6.630;2023-11-21T00:14:04;8.80;99.90
4820;DHT22;2424;49.696;6.630;2023-11-21T00:19:26;8.80;99.90
4820;DHT22;2424;49.696;6.630;2023-11-21T00:24:50;8.80;99.90
4820;DHT22;2424;49.696;6.630;2023-11-21T00:30:13;8.80;99.90
4820;DHT22;2424;49.696;6.630;2023-11-21T00:35:35;8.80;99.90
4820;DHT22;2424;49.696;6.630;2023-11-21T00:40:58;8.80;99.90
4820;DHT22;2424;49.696;6.630;2023-11-21T00:46:21;8.80;99.90
4820;DHT22;2424;49.696;6.630;2023-11-21T00:51:44;8.80;99.90
4820;DHT22;2424;49.696;6.630;2023-11-21T00:57:08;8.80;99.90
4820;DHT22;2424;49.696;6.630;2023-11-21T01:02:32;8.70;99.90
4820;DHT22;2424;49.696;6.630;2023-11-21T01:07:53;8.70;99.90
4820;DHT22;2424;49.696;6.630;2023-11-21T01:13:17;8.70;99.90
4820;DHT22;2424;49.696;6.630;2023-11-21T01:18:39;8.70;99.90
4820;DHT22;2424;49.696;6.630;2023-11-21T01:24:00;8.80;99.90
4820;DHT22;2424;49.696;6.630;2023-11-21T01:29:24;8.70;99.90
4820;DHT22;2424;49.696;6.630;2023-11-21T01:34:47;8.80;99.90
4820;DHT22;2424;49.696;6.630;2023-11-21T01:40:10;8.80;99.90
4820;DHT22;2424;49.696;6.630;2023-11-21T01:45:35;8.70;99.90
4820;DHT22;2424;49.696;6.630;2023-11-21T01:50:57;8.70;99.90
4820;DHT22;2424;49.696;6.630;2023-11-21T01:56:20;8.70;99.90
4820;DHT22;2424;49.696;6.630;2023-11-21T02:01:44;8.70;99.90
4820;DHT22;2424;49.696;6.630;2023-11-21T02:07:07;8.70;99.90
4820;DHT22;2424;49.696;6.630;2023-11-21T02:12:29;8.70;99.90
4820;DHT22;2424;49.696;6.630;2023-11-21T02:17:52;8.70;99.90
4820;DHT22;2424;49.696;6.630;2023-11-21T02:23:15;8.70;99.90
4820;DHT22;2424;49.696;6.630;2023-11-21T02:28:38;8.70;99.90
4820;DHT22;2424;49.696;6.630;2023-11-21T02:34:00;8.70;99.90
4820;DHT22;2424;49.696;6.630;2023-11-21T02:39:25;8.70;99.90
4820;DHT22;2424;49.696;6.630;2023-11-21T02:44:47;8.70;99.90
4820;DHT22;2424;49.696;6.630;2023-11-21T02:50:09;8.70;99.90
4820;DHT22;2424;49.696;6.630;2023-11-21T02:55:33;8.70;99.90
4820;DHT22;2424;49.696;6.630;2023-11-21T03:00:56;8.70;99.90
4820;DHT22;2424;49.696;6.630;2023-11-21T03:06:18;8.70;99.90
4820;DHT22;2424;49.696;6.630;2023-11-21T03:11:41;8.70;99.90
4820;DHT22;2424;49.696;6.630;2023-11-21T03:17:03;8.60;99.90
4820;DHT22;2424;49.696;6.630;2023-11-21T03:22:27;8.60;99.90
4820;DHT22;2424;49.696;6.630;2023-11-21T03:27:50;8.60;99.90
4820;DHT22;2424;49.696;6.630;2023-11-21T03:33:12;8.50;99.90
4820;DHT22;2424;49.696;6.630;2023-11-21T03:38:34;8.60;99.90
4820;DHT22;2424;49.696;6.630;2023-11-21T03:43:57;8.60;99.90
4820;DHT22;2424;49.696;6.630;2023-11-21T03:49:19;8.50;99.90
4820;DHT22;2424;49.696;6.630;2023-11-21T03:54:41;8.60;99.90
4820;DHT22;2424;49.696;6.630;2023-11-21T04:00:06;8.50;99.90
4820;DHT22;2424;49.696;6.630;2023-11-21T04:05:30;8.50;99.90
4820;DHT22;2424;49.696;6.630;2023-11-21T04:10:52;8.50;99.90
4820;DHT22;2424;49.696;6.630;2023-11-21T04:16:16;8.50;99.90
4820;DHT22;2424;49.696;6.630;2023-11-21T04:21:39;8.50;99.90
4820;DHT22;2424;49.696;6.630;2023-11-21T04:27:00;8.50;99.90
4820;DHT22;2424;49.696;6.630;2023-11-21T04:32:24;8.50;99.90
4820;DHT22;2424;49.696;6.630;2023-11-21T04:37:46;8.50;99.90
4820;DHT22;2424;49.696;6.630;2023-11-21T04:43:09;8.50;99.90
4820;DHT22;2424;49.696;6.630;2023-11-21T04:48:32;8.50;99.90
4820;DHT22;2424;49.696;6.630;2023-11-21T04:53:54;8.40;99.90
4820;DHT22;2424;49.696;6.630;2023-11-21T04:59:16;8.40;99.90
4820;DHT22;2424;49.696;6.630;2023-11-21T05:04:39;8.40;99.90
4820;DHT22;2424;49.696;6.630;2023-11-21T05:10:04;8.40;99.90
4820;DHT22;2424;49.696;6.630;2023-11-21T05:15:31;8.40;99.90
4820;DHT22;2424;49.696;6.630;2023-11-21T05:20:54;8.40;99.90
4820;DHT22;2424;49.696;6.630;2023-11-21T05:26:16;8.40;99.90
4820;DHT22;2424;49.696;6.630;2023-11-21T05:31:38;8.40;99.90
4820;DHT22;2424;49.696;6.630;2023-11-21T05:37:01;8.40;99.90
4820;DHT22;2424;49.696;6.630;2023-11-21T05:42:23;8.30;99.90
4820;DHT22;2424;49.696;6.630;2023-11-21T05:47:46;8.40;99.90
4820;DHT22;2424;49.696;6.630;2023-11-21T05:53:09;8.40;99.90
4820;DHT22;2424;49.696;6.630;2023-11-21T05:58:32;8.30;99.90
4820;DHT22;2424;49.696;6.630;2023-11-21T06:03:54;8.30;99.90
4820;DHT22;2424;49.696;6.630;2023-11-21T06:09:17;8.30;99.90
4820;DHT22;2424;49.696;6.630;2023-11-21T06:14:39;8.30;99.90
4820;DHT22;2424;49.696;6.630;2023-11-21T06:20:01;8.30;99.90
4820;DHT22;2424;49.696;6.630;2023-11-21T06:25:26;8.30;99.90
4820;DHT22;2424;49.696;6.630;2023-11-21T06:30:47;8.30;99.90
4820;DHT22;2424;49.696;6.630;2023-11-21T06:36:11;8.30;99.90
4820;DHT22;2424;49.696;6.630;2023-11-21T06:41:34;8.30;99.90
4820;DHT22;2424;49.696;6.630;2023-11-21T06:46:59;8.20;99.90
4820;DHT22;2424;49.696;6.630;2023-11-21T06:52:21;8.30;99.90
4820;DHT22;2424;49.696;6.630;2023-11-21T06:57:44;8.20;99.90
4820;DHT22;2424;49.696;6.630;2023-11-21T07:03:07;8.10;99.90
4820;DHT22;2424;49.696;6.630;2023-11-21T07:08:29;8.10;99.90
4820;DHT22;2424;49.696;6.630;2023-11-21T07:13:52;8.10;99.90
4820;DHT22;2424;49.696;6.630;2023-11-21T07:19:14;8.10;99.90
4820;DHT22;2424;49.696;6.630;2023-11-21T07:24:37;8.10;99.90
4820;DHT22;2424;49.696;6.630;2023-11-21T07:30:00;8.10;99.90
4820;DHT22;2424;49.696;6.630;2023-11-21T07:35:24;8.10;99.90
4820;DHT22;2424;49.696;6.630;2023-11-21T07:40:46;8.10;99.90
4820;DHT22;2424;49.696;6.630;2023-11-21T07:46:09;8.10;99.90
4820;DHT22;2424;49.696;6.630;2023-11-21T07:51:32;8.20;99.90
4820;DHT22;2424;49.696;6.630;2023-11-21T07:56:54;8.20;99.90
4820;DHT22;2424;49.696;6.630;2023-11-21T08:02:18;8.20;99.90
4820;DHT22;2424;49.696;6.630;2023-11-21T08:07:39;8.20;99.90
4820;DHT22;2424;49.696;6.630;2023-11-21T08:13:02;8.30;99.90
4820;DHT22;2424;49.696;6.630;2023-11-21T08:18:25;8.30;99.90
4820;DHT22;2424;49.696;6.630;2023-11-21T08:23:47;8.30;99.90
4820;DHT22;2424;49.696;6.630;2023-11-21T08:29:14;8.30;99.90
4820;DHT22;2424;49.696;6.630;2023-11-21T08:34:38;8.30;99.90
4820;DHT22;2424;49.696;6.630;2023-11-21T08:40:04;8.30;99.90
4820;DHT22;2424;49.696;6.630;2023-11-21T08:45:29;8.30;99.90
4820;DHT22;2424;49.696;6.630;2023-11-21T08:50:53;8.40;99.90
4820;DHT22;2424;49.696;6.630;2023-11-21T08:56:15;8.50;99.90
4820;DHT22;2424;49.696;6.630;2023-11-21T09:01:37;8.50;99.90
4820;DHT22;2424;49.696;6.630;2023-11-21T09:07:00;8.50;99.90
4820;DHT22;2424;49.696;6.630;2023-11-21T09:12:22;8.50;99.90
4820;DHT22;2424;49.696;6.630;2023-11-21T09:17:45;8.50;99.90
4820;DHT22;2424;49.696;6.630;2023-11-21T09:23:08;8.60;99.90
4820;DHT22;2424;49.696;6.630;2023-11-21T09:28:30;8.60;99.90
4820;DHT22;2424;49.696;6.630;2023-11-21T09:33:52;8.60;99.90
4820;DHT22;2424;49.696;6.630;2023-11-21T09:39:15;8.70;99.90
4820;DHT22;2424;49.696;6.630;2023-11-21T09:44:45;8.60;99.90
4820;DHT22;2424;49.696;6.630;2023-11-21T09:50:09;8.70;99.90
4820;DHT22;2424;49.696;6.630;2023-11-21T09:55:34;8.70;99.90
4820;DHT22;2424;49.696;6.630;2023-11-21T10:00:58;8.70;99.90
4820;DHT22;2424;49.696;6.630;2023-11-21T10:06:21;8.80;99.90
4820;DHT22;2424;49.696;6.630;2023-11-21T10:11:47;8.80;99.90
4820;DHT22;2424;49.696;6.630;2023-11-21T10:17:12;8.90;99.90
4820;DHT22;2424;49.696;6.630;2023-11-21T10:22:37;8.90;99.90
4820;DHT22;2424;49.696;6.630;2023-11-21T10:28:02;8.90;99.90
4820;DHT22;2424;49.696;6.630;2023-11-21T10:33:27;8.90;99.90
4820;DHT22;2424;49.696;6.630;2023-11-21T10:38:50;9.00;99.90
4820;DHT22;2424;49.696;6.630;2023-11-21T10:44:16;9.10;99.90
4820;DHT22;2424;49.696;6.630;2023-11-21T10:49:41;9.10;99.90
4820;DHT22;2424;49.696;6.630;2023-11-21T10:55:16;9.20;99.90
4820;DHT22;2424;49.696;6.630;2023-11-21T11:00:40;9.20;99.90
4820;DHT22;2424;49.696;6.630;2023-11-21T11:06:02;9.30;99.90
4820;DHT22;2424;49.696;6.630;2023-11-21T11:11:28;9.30;99.90
4820;DHT22;2424;49.696;6.630;2023-11-21T11:16:54;9.30;99.90
4820;DHT22;2424;49.696;6.630;2023-11-21T11:22:34;9.40;99.90
4820;DHT22;2424;49.696;6.630;2023-11-21T11:28:08;9.40;99.90
4820;DHT22;2424;49.696;6.630;2023-11-21T11:33:38;9.50;99.90
4820;DHT22;2424;49.696;6.630;2023-11-21T11:39:02;9.40;99.90
4820;DHT22;2424;49.696;6.630;2023-11-21T11:44:48;9.50;99.90
4820;DHT22;2424;49.696;6.630;2023-11-21T11:50:13;9.50;99.90
4820;DHT22;2424;49.696;6.630;2023-11-21T11:55:37;9.70;99.90
4820;DHT22;2424;49.696;6.630;2023-11-21T12:00:59;9.70;99.90
4820;DHT22;2424;49.696;6.630;2023-11-21T12:06:34;9.70;99.90
4820;DHT22;2424;49.696;6.630;2023-11-21T12:11:56;9.90;99.90
4820;DHT22;2424;49.696;6.630;2023-11-21T12:17:19;9.90;99.90
4820;DHT22;2424;49.696;6.630;2023-11-21T12:22:45;10.10;99.90
4820;DHT22;2424;49.696;6.630;2023-11-21T12:28:09;10.00;99.90
4820;DHT22;2424;49.696;6.630;2023-11-21T12:33:32;10.50;99.90
4820;DHT22;2424;49.696;6.630;2023-11-21T12:38:57;11.10;99.90
4820;DHT22;2424;49.696;6.630;2023-11-21T12:44:19;10.50;99.90
4820;DHT22;2424;49.696;6.630;2023-11-21T12:49:43;10.40;99.90
4820;DHT22;2424;49.696;6.630;2023-11-21T12:55:07;10.40;99.90
4820;DHT22;2424;49.696;6.630;2023-11-21T13:00:33;10.40;99.90
4820;DHT22;2424;49.696;6.630;2023-11-21T13:05:57;10.20;99.90
4820;DHT22;2424;49.696;6.630;2023-11-21T13:11:21;10.20;99.90
4820;DHT22;2424;49.696;6.630;2023-11-21T13:16:43;10.20;99.90
4820;DHT22;2424;49.696;6.630;2023-11-21T13:22:06;10.20;99.90
4820;DHT22;2424;49.696;6.630;2023-11-21T13:27:33;10.20;99.90
4820;DHT22;2424;49.696;6.630;2023-11-21T13:32:57;10.20;99.90
4820;DHT22;2424;49.696;6.630;2023-11-21T13:38:22;10.20;99.90
4820;DHT22;2424;49.696;6.630;2023-11-21T13:43:46;10.20;99.90
4820;DHT22;2424;49.696;6.630;2023-11-21T13:49:15;10.20;99.90
4820;DHT22;2424;49.696;6.630;2023-11-21T13:54:38;10.10;99.90
4820;DHT22;2424;49.696;6.630;2023-11-21T14:00:02;10.00;99.90
4820;DHT22;2424;49.696;6.630;2023-11-21T14:05:31;10.00;99.90
4820;DHT22;2424;49.696;6.630;2023-11-21T14:10:54;10.00;99.90
4820;DHT22;2424;49.696;6.630;2023-11-21T14:16:19;10.00;99.90
4820;DHT22;2424;49.696;6.630;2023-11-21T14:21:42;10.00;99.90
4820;DHT22;2424;49.696;6.630;2023-11-21T14:27:04;10.10;99.90
4820;DHT22;2424;49.696;6.630;2023-11-21T14:32:28;10.10;99.90
4820;DHT22;2424;49.696;6.630;2023-11-21T14:37:51;10.10;99.90
4820;DHT22;2424;49.696;6.630;2023-11-21T14:43:13;10.00;99.90
4820;DHT22;2424;49.696;6.630;2023-11-21T14:48:37;10.00;99.90
4820;DHT22;2424;49.696;6.630;2023-11-21T14:54:03;10.00;99.90
4820;DHT22;2424;49.696;6.630;2023-11-21T14:59:27;9.90;99.90
4820;DHT22;2424;49.696;6.630;2023-11-21T15:04:50;9.90;99.90
4820;DHT22;2424;49.696;6.630;2023-11-21T15:10:16;9.90;99.90
4820;DHT22;2424;49.696;6.630;2023-11-21T15:15:42;9.80;99.90
4820;DHT22;2424;49.696;6.630;2023-11-21T15:21:05;9.80;99.90
4820;DHT22;2424;49.696;6.630;2023-11-21T15:26:31;9.80;99.90
4820;DHT22;2424;49.696;6.630;2023-11-21T15:31:53;9.70;99.90
4820;DHT22;2424;49.696;6.630;2023-11-21T15:37:18;9.70;99.90
4820;DHT22;2424;49.696;6.630;2023-11-21T15:42:40;9.60;99.90
4820;DHT22;2424;49.696;6.630;2023-11-21T15:48:02;9.50;99.90
4820;DHT22;2424;49.696;6.630;2023-11-21T15:53:25;9.50;99.90
4820;DHT22;2424;49.696;6.630;2023-11-21T15:58:47;9.40;99.90
4820;DHT22;2424;49.696;6.630;2023-11-21T16:04:10;9.40;99.90
4820;DHT22;2424;49.696;6.630;2023-11-21T16:09:37;9.40;99.90
4820;DHT22;2424;49.696;6.630;2023-11-21T16:15:01;9.30;99.90
4820;DHT22;2424;49.696;6.630;2023-11-21T16:20:28;9.30;99.90
4820;DHT22;2424;49.696;6.630;2023-11-21T16:25:51;9.30;99.90
4820;DHT22;2424;49.696;6.630;2023-11-21T16:31:21;9.30;99.90
4820;DHT22;2424;49.696;6.630;2023-11-21T16:36:43;9.30;99.90
4820;DHT22;2424;49.696;6.630;2023-11-21T16:42:07;9.30;99.90
4820;DHT22;2424;49.696;6.630;2023-11-21T16:47:29;9.20;99.90
4820;DHT22;2424;49.696;6.630;2023-11-21T16:52:51;9.10;99.90
4820;DHT22;2424;49.696;6.630;2023-11-21T16:58:14;9.10;99.90
4820;DHT22;2424;49.696;6.630;2023-11-21T17:03:36;9.00;99.90
4820;DHT22;2424;49.696;6.630;2023-11-21T17:08:58;8.90;99.90
4820;DHT22;2424;49.696;6.630;2023-11-21T17:14:22;8.90;99.90
4820;DHT22;2424;49.696;6.630;2023-11-21T17:19:44;8.80;99.90
4820;DHT22;2424;49.696;6.630;2023-11-21T17:25:08;8.80;99.90
4820;DHT22;2424;49.696;6.630;2023-11-21T17:30:32;8.80;99.90
4820;DHT22;2424;49.696;6.630;2023-11-21T17:35:53;8.80;99.90
4820;DHT22;2424;49.696;6.630;2023-11-21T17:41:19;8.80;99.90
4820;DHT22;2424;49.696;6.630;2023-11-21T17:46:43;8.80;99.90
4820;DHT22;2424;49.696;6.630;2023-11-21T17:52:05;8.80;99.90
4820;DHT22;2424;49.696;6.630;2023-11-21T17:57:28;8.90;99.90
4820;DHT22;2424;49.696;6.630;2023-11-21T18:02:51;8.80;99.90
4820;DHT22;2424;49.696;6.630;2023-11-21T18:08:13;8.80;99.90
4820;DHT22;2424;49.696;6.630;2023-11-21T18:13:35;8.80;99.90
4820;DHT22;2424;49.696;6.630;2023-11-21T18:18:58;8.80;99.90
4820;DHT22;2424;49.696;6.630;2023-11-21T18:24:20;8.70;99.90
4820;DHT22;2424;49.696;6.630;2023-11-21T18:29:42;8.70;99.90
4820;DHT22;2424;49.696;6.630;2023-11-21T18:35:06;8.70;99.90
4820;DHT22;2424;49.696;6.630;2023-11-21T18:40:28;8.80;99.90
4820;DHT22;2424;49.696;6.630;2023-11-21T18:45:50;8.70;99.90
4820;DHT22;2424;49.696;6.630;2023-11-21T18:51:13;8.70;99.90
4820;DHT22;2424;49.696;6.630;2023-11-21T18:56:36;8.60;99.90
4820;DHT22;2424;49.696;6.630;2023-11-21T19:01:59;8.70;99.90
4820;DHT22;2424;49.696;6.630;2023-11-21T19:07:23;8.70;99.90
4820;DHT22;2424;49.696;6.630;2023-11-21T19:12:46;8.70;99.90
4820;DHT22;2424;49.696;6.630;2023-11-21T19:18:08;8.60;99.90
4820;DHT22;2424;49.696;6.630;2023-11-21T19:23:32;8.60;99.90
4820;DHT22;2424;49.696;6.630;2023-11-21T19:28:54;8.70;99.90
4820;DHT22;2424;49.696;6.630;2023-11-21T19:34:16;8.70;99.90
4820;DHT22;2424;49.696;6.630;2023-11-21T19:39:40;8.60;99.90
4820;DHT22;2424;49.696;6.630;2023-11-21T19:45:03;8.60;99.90
4820;DHT22;2424;49.696;6.630;2023-11-21T19:50:25;8.60;99.90
4820;DHT22;2424;49.696;6.630;2023-11-21T19:55:48;8.60;99.90
4820;DHT22;2424;49.696;6.630;2023-11-21T20:01:11;8.60;99.90
4820;DHT22;2424;49.696;6.630;2023-11-21T20:06:33;8.60;99.90
4820;DHT22;2424;49.696;6.630;2023-11-21T20:11:56;8.50;99.90
4820;DHT22;2424;49.696;6.630;2023-11-21T20:17:18;8.50;99.90
4820;DHT22;2424;49.696;6.630;2023-11-21T20:22:40;8.50;99.90
4820;DHT22;2424;49.696;6.630;2023-11-21T20:28:04;8.50;99.90
4820;DHT22;2424;49.696;6.630;2023-11-21T20:33:29;8.50;99.90
4820;DHT22;2424;49.696;6.630;2023-11-21T20:38:51;8.50;99.90
4820;DHT22;2424;49.696;6.630;2023-11-21T20:44:14;8.50;99.90
4820;DHT22;2424;49.696;6.630;2023-11-21T20:49:36;8.50;99.90
4820;DHT22;2424;49.696;6.630;2023-11-21T20:54:58;8.50;99.90
4820;DHT22;2424;49.696;6.630;2023-11-21T21:00:22;8.50;99.90
4820;DHT22;2424;49.696;6.630;2023-11-21T21:05:47;8.50;99.90
4820;DHT22;2424;49.696;6.630;2023-11-21T21:11:09;8.50;99.90
4820;DHT22;2424;49.696;6.630;2023-11-21T21:16:32;8.50;99.90
4820;DHT22;2424;49.696;6.630;2023-11-21T21:21:54;8.50;99.90
4820;DHT22;2424;49.696;6.630;2023-11-21T21:27:16;8.50;99.90
4820;DHT22;2424;49.696;6.630;2023-11-21T21:32:39;8.50;99.90
4820;DHT22;2424;49.696;6.630;2023-11-21T21:38:01;8.50;99.90
4820;DHT22;2424;49.696;6.630;2023-11-21T21:43:24;8.50;99.90
4820;DHT22;2424;49.696;6.630;2023-11-21T21:48:49;8.50;99.90
4820;DHT22;2424;49.696;6.630;2023-11-21T21:54:11;8.50;99.90
4820;DHT22;2424;49.696;6.630;2023-11-21T21:59:32;8.50;99.90
4820;DHT22;2424;49.696;6.630;2023-11-21T22:04:56;8.40;99.90
4820;DHT22;2424;49.696;6.630;2023-11-21T22:10:18;8.50;99.90
4820;DHT22;2424;49.696;6.630;2023-11-21T22:15:40;8.50;99.90
4820;DHT22;2424;49.696;6.630;2023-11-21T22:21:03;8.50;99.90
4820;DHT22;2424;49.696;6.630;2023-11-21T22:26:26;8.50;99.90
4820;DHT22;2424;49.696;6.630;2023-11-21T22:31:48;8.50;99.90
4820;DHT22;2424;49.696;6.630;2023-11-21T22:37:12;8.50;99.90
4820;DHT22;2424;49.696;6.630;2023-11-21T22:42:34;8.40;99.90
4820;DHT22;2424;49.696;6.630;2023-11-21T22:47:57;8.30;99.90
4820;DHT22;2424;49.696;6.630;2023-11-21T22:53:20;8.40;99.90
4820;DHT22;2424;49.696;6.630;2023-11-21T22:58:42;8.30;99.90
4820;DHT22;2424;49.696;6.630;2023-11-21T23:04:05;8.30;99.90
4820;DHT22;2424;49.696;6.630;2023-11-21T23:09:31;8.20;99.90
4820;DHT22;2424;49.696;6.630;2023-11-21T23:14:54;8.20;99.90
4820;DHT22;2424;49.696;6.630;2023-11-21T23:20:16;8.20;99.90
4820;DHT22;2424;49.696;6.630;2023-11-21T23:25:42;8.20;99.90
4820;DHT22;2424;49.696;6.630;2023-11-21T23:31:04;7.90;99.90
4820;DHT22;2424;49.696;6.630;2023-11-21T23:36:26;7.70;99.90
4820;DHT22;2424;49.696;6.630;2023-11-21T23:41:50;7.70;99.90
4820;DHT22;2424;49.696;6.630;2023-11-21T23:47:11;7.60;99.90
4820;DHT22;2424;49.696;6.630;2023-11-21T23:52:33;7.50;99.90
4820;DHT22;2424;49.696;6.630;2023-11-21T23:57:57;7.40;99.90
